Time;durP1;ratioP1;P1;durP2;ratioP2;P2;SDS_P1;SDS_P2;PMS_P1;PMS_P2;Temp;Humidity;BMP_temperature;BMP_pressure;BME280_temperature;BME280_humidity;BME280_pressure;Samples;Min_cycle;Max_cycle;Signal;HPM_P1;HPM_P2
2022/08/04 00:00:06;;;;;;;9.17;2.80;;;26.50;53.80;;;;;;5095309;28;20446;-72
2022/08/04 00:02:49;;;;;;;9.53;2.87;;;26.50;53.90;;;;;;5095168;28;20451;-72
2022/08/04 00:05:29;;;;;;;13.77;2.63;;;26.50;54.00;;;;;;5095329;28;20439;-71
2022/08/04 00:08:06;;;;;;;9.70;2.00;;;26.40;54.10;;;;;;5095041;28;20436;-72
2022/08/04 00:10:34;;;;;;;13.20;2.37;;;26.30;54.30;;;;;;5095028;28;20424;-72
2022/08/04 00:13:04;;;;;;;8.10;3.43;;;26.30;54.30;;;;;;5094598;28;20549;-72
2022/08/04 00:15:33;;;;;;;7.53;2.60;;;26.30;54.50;;;;;;5094667;28;20448;-72
2022/08/04 00:18:03;;;;;;;5.07;2.00;;;26.30;54.70;;;;;;5094606;28;20932;-72
2022/08/04 00:20:32;;;;;;;8.07;2.20;;;26.20;54.80;;;;;;5095206;28;20451;-72
2022/08/04 00:23:00;;;;;;;8.53;2.07;;;26.10;54.80;;;;;;5094709;28;20451;-71
2022/08/04 00:25:28;;;;;;;8.27;2.20;;;26.00;55.00;;;;;;5094754;28;20827;-71
2022/08/04 00:27:55;;;;;;;6.67;2.33;;;25.90;55.20;;;;;;5094860;28;20916;-72
2022/08/04 00:30:24;;;;;;;10.17;2.37;;;25.80;55.40;;;;;;5094579;28;20840;-72
2022/08/04 00:32:52;;;;;;;14.40;2.77;;;25.70;55.60;;;;;;5094395;28;20484;-71
2022/08/04 00:35:19;;;;;;;12.23;2.33;;;25.70;55.60;;;;;;5094460;28;20436;-72
2022/08/04 00:37:47;;;;;;;11.77;2.37;;;25.80;55.70;;;;;;5094475;28;20455;-72
2022/08/04 00:40:24;;;;;;;6.03;2.60;;;25.80;55.70;;;;;;5094522;28;20444;-72
2022/08/04 00:43:00;;;;;;;2.63;2.03;;;25.80;55.70;;;;;;5094437;28;20845;-71
2022/08/04 00:45:54;;;;;;;7.23;2.33;;;25.80;55.70;;;;;;5094311;28;20432;-72
2022/08/04 00:48:33;;;;;;;6.07;1.50;;;25.80;55.90;;;;;;5090253;28;20459;-72
2022/08/04 00:51:14;;;;;;;3.60;1.87;;;25.80;56.00;;;;;;5093892;28;20919;-72
2022/08/04 00:54:01;;;;;;;4.60;1.60;;;25.80;56.10;;;;;;5094348;28;20471;-73
2022/08/04 00:56:52;;;;;;;5.97;2.00;;;25.70;56.20;;;;;;5093814;28;20820;-72
2022/08/04 00:59:34;;;;;;;3.53;2.07;;;25.70;56.50;;;;;;5090851;28;20456;-72
2022/08/04 01:02:11;;;;;;;6.80;2.10;;;25.60;56.70;;;;;;5094409;28;20435;-73
2022/08/04 01:04:47;;;;;;;7.20;2.13;;;25.50;57.40;;;;;;5093923;28;20474;-72
2022/08/04 01:07:27;;;;;;;10.50;2.60;;;25.50;57.00;;;;;;5094074;28;20442;-72
2022/08/04 01:10:03;;;;;;;4.30;1.70;;;25.50;57.10;;;;;;5094100;28;20429;-72
2022/08/04 01:12:53;;;;;;;4.63;2.00;;;25.40;57.10;;;;;;5094007;28;20570;-72
2022/08/04 01:15:27;;;;;;;5.43;2.00;;;25.40;57.20;;;;;;5094024;28;20924;-72
2022/08/04 01:18:04;;;;;;;5.67;1.93;;;25.40;57.50;;;;;;5093635;28;20451;-73
2022/08/04 01:20:34;;;;;;;5.87;2.77;;;25.40;57.50;;;;;;5094155;28;20432;-72
2022/08/04 01:23:37;;;;;;;2.73;1.90;;;25.30;57.50;;;;;;5093917;28;20468;-72
2022/08/04 01:26:38;;;;;;;4.53;2.30;;;25.30;57.70;;;;;;5094158;28;20424;-72
2022/08/04 01:29:09;;;;;;;6.77;2.17;;;25.20;57.80;;;;;;5060978;28;20455;-73
2022/08/04 01:31:53;;;;;;;3.10;1.77;;;25.20;58.00;;;;;;5093747;28;20528;-73
2022/08/04 01:34:22;;;;;;;6.10;2.50;;;25.20;58.00;;;;;;5093906;28;20482;-73
2022/08/04 01:36:59;;;;;;;9.90;2.67;;;25.10;58.10;;;;;;5094464;28;20448;-73
2022/08/04 01:39:40;;;;;;;4.77;2.23;;;25.10;58.40;;;;;;5100066;28;20439;-73
2022/08/04 01:42:08;;;;;;;2.53;1.93;;;25.00;58.50;;;;;;5116311;28;20432;-71
2022/08/04 01:44:38;;;;;;;8.13;2.40;;;25.00;58.60;;;;;;5118690;28;20475;-71
2022/08/04 01:47:06;;;;;;;7.30;2.03;;;25.00;58.70;;;;;;5114569;28;20499;-72
2022/08/04 01:49:33;;;;;;;3.20;2.13;;;25.00;58.90;;;;;;5109986;28;20440;-73
2022/08/04 01:52:02;;;;;;;4.63;2.10;;;24.90;59.00;;;;;;5107400;28;20483;-72
2022/08/04 01:54:31;;;;;;;6.03;2.17;;;24.90;59.00;;;;;;5106114;28;20470;-72
2022/08/04 01:56:59;;;;;;;5.13;2.70;;;24.90;59.60;;;;;;5108077;28;20447;-72
2022/08/04 01:59:30;;;;;;;6.40;2.20;;;24.90;59.20;;;;;;5106368;28;20940;-72
2022/08/04 02:01:58;;;;;;;11.83;3.30;;;24.90;59.30;;;;;;5095229;28;20514;-72
2022/08/04 02:04:25;;;;;;;4.30;2.33;;;24.90;59.40;;;;;;5094695;28;20464;-73
2022/08/04 02:07:02;;;;;;;2.67;2.00;;;24.80;59.40;;;;;;5093432;28;20488;-73
2022/08/04 02:09:39;;;;;;;7.77;2.30;;;24.80;59.50;;;;;;5093814;28;20432;-73
2022/08/04 02:12:16;;;;;;;3.97;1.90;;;24.80;59.70;;;;;;5093319;28;20475;-72
2022/08/04 02:14:50;;;;;;;5.90;2.47;;;24.70;59.70;;;;;;5093262;28;20483;-73
2022/08/04 02:17:25;;;;;;;2.63;2.00;;;24.80;59.90;;;;;;5093271;28;20428;-73
2022/08/04 02:20:03;;;;;;;4.53;2.73;;;24.70;60.00;;;;;;5093460;28;20427;-73
2022/08/04 02:22:33;;;;;;;4.47;2.17;;;24.70;60.20;;;;;;5093055;28;20787;-73
2022/08/04 02:25:05;;;;;;;4.00;2.23;;;24.70;60.30;;;;;;5093219;28;20448;-73
2022/08/04 02:27:56;;;;;;;4.50;2.30;;;24.70;60.40;;;;;;5093258;28;20521;-73
2022/08/04 02:30:31;;;;;;;7.80;2.60;;;24.70;60.50;;;;;;5092957;28;20979;-72
2022/08/04 02:33:03;;;;;;;7.23;2.87;;;24.60;60.70;;;;;;5092825;28;20494;-72
2022/08/04 02:35:36;;;;;;;6.80;2.23;;;24.60;60.80;;;;;;5093196;28;20432;-72
2022/08/04 02:38:12;;;;;;;6.93;2.27;;;24.50;60.90;;;;;;5092873;28;20961;-73
2022/08/04 02:40:41;;;;;;;3.70;2.13;;;24.50;61.10;;;;;;5094992;28;20431;-73
2022/08/04 02:43:09;;;;;;;3.67;2.53;;;24.50;61.30;;;;;;5078732;28;20514;-72
2022/08/04 02:45:37;;;;;;;4.00;1.80;;;24.50;61.20;;;;;;5096620;28;20522;-73
2022/08/04 02:48:10;;;;;;;4.97;2.10;;;24.40;61.20;;;;;;5096607;28;20448;-73
2022/08/04 02:50:39;;;;;;;6.33;2.47;;;24.40;60.90;;;;;;5096557;28;20444;-73
2022/08/04 02:53:09;;;;;;;4.70;2.80;;;24.30;60.90;;;;;;5096199;28;21026;-73
2022/08/04 02:55:36;;;;;;;5.60;2.87;;;24.30;61.10;;;;;;5096358;28;20432;-73
2022/08/04 02:58:04;;;;;;;6.73;2.30;;;24.30;61.20;;;;;;5096325;28;20820;-73
2022/08/04 03:00:31;;;;;;;5.80;3.00;;;24.30;61.40;;;;;;5096210;28;20447;-72
2022/08/04 03:03:15;;;;;;;9.40;2.60;;;24.30;61.60;;;;;;5096144;28;20464;-72
2022/08/04 03:05:58;;;;;;;7.70;2.97;;;24.30;61.80;;;;;;5096218;28;20484;-73
2022/08/04 03:08:55;;;;;;;5.83;2.50;;;24.20;61.90;;;;;;5096295;28;20436;-73
2022/08/04 03:11:48;;;;;;;9.17;2.10;;;24.10;62.00;;;;;;5095940;28;20437;-73
2022/08/04 03:14:47;;;;;;;3.73;2.87;;;24.10;62.10;;;;;;5095667;28;20478;-72
2022/08/04 03:17:53;;;;;;;4.37;1.90;;;24.10;62.40;;;;;;5095937;28;20435;-72
2022/08/04 03:20:49;;;;;;;2.50;2.30;;;24.10;62.40;;;;;;5051941;28;20459;-71
2022/08/04 03:24:02;;;;;;;4.63;2.03;;;24.10;62.70;;;;;;5095705;28;20468;-73
2022/08/04 03:26:53;;;;;;;6.83;2.17;;;24.00;62.80;;;;;;5095802;28;20432;-73
2022/08/04 03:29:54;;;;;;;11.93;2.27;;;24.00;63.10;;;;;;5095685;28;20432;-73
2022/08/04 03:33:12;;;;;;;5.27;2.40;;;24.00;63.30;;;;;;5095400;28;20510;-73
2022/08/04 03:36:12;;;;;;;4.37;2.20;;;23.90;63.20;;;;;;5095584;28;20448;-73
2022/08/04 03:39:02;;;;;;;4.20;2.00;;;23.90;63.50;;;;;;5095080;28;20953;-72
2022/08/04 03:42:11;;;;;;;3.17;2.00;;;23.90;63.80;;;;;;5095398;28;20433;-72
2022/08/04 03:45:11;;;;;;;6.10;2.30;;;23.80;63.90;;;;;;5091762;28;20476;-73
2022/08/04 03:48:09;;;;;;;3.90;2.57;;;23.80;64.10;;;;;;5094875;28;20821;-72
2022/08/04 03:53:58;;;;;;;6.80;2.10;;;23.70;64.20;;;;;;5095174;28;20976;-73
2022/08/04 03:56:52;;;;;;;4.23;2.30;;;23.60;64.10;;;;;;5094993;28;20440;-73
2022/08/04 03:59:45;;;;;;;7.23;2.20;;;23.50;64.10;;;;;;5094935;28;20455;-73
2022/08/04 04:02:44;;;;;;;3.17;2.17;;;23.40;64.20;;;;;;5094952;28;20433;-72
2022/08/04 04:05:39;;;;;;;5.00;2.20;;;23.40;64.30;;;;;;5094806;28;20808;-72
2022/08/04 04:08:34;;;;;;;6.67;2.67;;;23.40;64.40;;;;;;5094518;28;20924;-73
2022/08/04 04:11:40;;;;;;;4.80;2.20;;;23.40;64.80;;;;;;5094460;28;20915;-73
2022/08/04 04:14:35;;;;;;;3.50;2.10;;;23.40;65.20;;;;;;5094221;28;20883;-72
2022/08/04 04:17:22;;;;;;;2.43;2.10;;;23.30;65.50;;;;;;5077255;28;20809;-73
2022/08/04 04:19:58;;;;;;;5.70;2.30;;;23.30;66.40;;;;;;5094611;28;20438;-73
2022/08/04 04:22:54;;;;;;;3.37;1.77;;;23.20;65.60;;;;;;5094523;28;20428;-72
2022/08/04 04:25:34;;;;;;;7.40;2.80;;;23.30;66.00;;;;;;5094506;28;20436;-72
2022/08/04 04:28:20;;;;;;;3.57;2.33;;;23.30;66.20;;;;;;5094467;28;20424;-72
2022/08/04 04:30:57;;;;;;;5.13;2.53;;;23.30;66.60;;;;;;5094500;28;20467;-72
2022/08/04 04:33:43;;;;;;;7.67;2.67;;;23.30;66.70;;;;;;5094157;28;20511;-72
2022/08/04 04:36:14;;;;;;;4.60;2.40;;;23.30;66.90;;;;;;5094295;28;20435;-72
2022/08/04 04:38:54;;;;;;;8.67;2.63;;;23.30;66.90;;;;;;5094344;28;20432;-72
2022/08/04 04:42:02;;;;;;;4.97;2.53;;;23.40;67.10;;;;;;5094137;28;20440;-72
2022/08/04 04:44:55;;;;;;;5.50;2.70;;;23.40;67.20;;;;;;5077973;28;20999;-72
2022/08/04 04:47:31;;;;;;;6.13;2.60;;;23.40;67.40;;;;;;5094741;28;20481;-72
2022/08/04 04:50:08;;;;;;;5.00;2.60;;;23.40;67.70;;;;;;5094074;28;20424;-72
2022/08/04 04:52:41;;;;;;;3.23;2.70;;;23.40;67.70;;;;;;5093958;28;20412;-72
2022/08/04 04:55:18;;;;;;;7.03;2.57;;;23.40;67.80;;;;;;5094252;28;20428;-73
2022/08/04 04:57:46;;;;;;;5.20;2.33;;;23.40;67.90;;;;;;5093942;28;20497;-72
2022/08/04 05:00:15;;;;;;;8.00;2.67;;;23.30;67.90;;;;;;5093863;28;20497;-72
2022/08/04 05:03:10;;;;;;;4.87;3.20;;;23.30;68.00;;;;;;5093000;28;20813;-73
2022/08/04 05:05:56;;;;;;;4.30;2.70;;;23.30;68.00;;;;;;5093875;28;20467;-73
2022/08/04 05:08:59;;;;;;;4.30;2.93;;;23.30;68.30;;;;;;5093871;28;20428;-73
2022/08/04 05:11:58;;;;;;;6.43;2.43;;;23.30;68.70;;;;;;5086683;28;20447;-73
2022/08/04 05:14:29;;;;;;;7.00;2.50;;;23.40;69.10;;;;;;5093772;28;20467;-73
2022/08/04 05:17:04;;;;;;;5.57;3.13;;;23.40;69.30;;;;;;5093736;28;20428;-73
2022/08/04 05:19:44;;;;;;;8.33;3.20;;;23.40;69.40;;;;;;5093562;28;20423;-73
2022/08/04 05:22:17;;;;;;;5.47;2.43;;;23.50;69.70;;;;;;5093716;28;20432;-73
2022/08/04 05:24:48;;;;;;;5.07;2.60;;;23.50;69.80;;;;;;5093150;28;20488;-72
2022/08/04 05:27:19;;;;;;;6.00;3.10;;;23.60;70.20;;;;;;5093586;28;20432;-73
2022/08/04 05:29:51;;;;;;;9.43;3.70;;;23.60;70.50;;;;;;5093521;28;20472;-72
2022/08/04 05:32:26;;;;;;;8.00;2.50;;;23.70;71.30;;;;;;5093529;28;20436;-72
2022/08/04 05:34:59;;;;;;;4.00;2.67;;;23.70;71.40;;;;;;5093435;28;20470;-73
2022/08/04 05:37:28;;;;;;;4.93;2.60;;;23.80;71.30;;;;;;5093482;28;20436;-73
2022/08/04 05:39:59;;;;;;;8.97;2.50;;;23.80;71.80;;;;;;5093458;28;20460;-73
2022/08/04 05:42:27;;;;;;;5.37;3.03;;;23.90;71.90;;;;;;5093442;28;20436;-72
2022/08/04 05:44:55;;;;;;;7.93;3.07;;;23.90;72.10;;;;;;5093451;28;20494;-72
2022/08/04 05:47:23;;;;;;;4.20;2.53;;;23.90;72.20;;;;;;5093108;28;20817;-72
2022/08/04 05:49:50;;;;;;;6.37;2.87;;;23.90;72.30;;;;;;5093219;28;20463;-72
2022/08/04 05:52:19;;;;;;;7.07;3.00;;;24.00;72.30;;;;;;5093179;28;20459;-73
2022/08/04 05:54:48;;;;;;;8.20;3.20;;;24.10;72.70;;;;;;5093155;28;20460;-72
2022/08/04 05:57:16;;;;;;;4.20;2.40;;;24.10;72.60;;;;;;5093091;28;20466;-72
2022/08/04 05:59:45;;;;;;;9.97;4.10;;;24.20;72.30;;;;;;5093231;28;20448;-71
2022/08/04 06:02:16;;;;;;;6.83;2.90;;;24.30;72.30;;;;;;5092970;28;20488;-72
2022/08/04 06:04:49;;;;;;;5.13;2.80;;;24.30;72.30;;;;;;5093197;28;20476;-72
2022/08/04 06:07:16;;;;;;;4.70;3.23;;;24.40;72.10;;;;;;5093755;28;20436;-72
2022/08/04 06:09:43;;;;;;;10.50;2.70;;;24.50;72.00;;;;;;5092969;28;20460;-72
2022/08/04 06:12:14;;;;;;;10.90;3.30;;;24.60;71.40;;;;;;5092756;28;20906;-72
2022/08/04 06:14:43;;;;;;;10.23;2.67;;;24.70;71.00;;;;;;5095380;28;20467;-72
2022/08/04 06:17:14;;;;;;;4.40;2.40;;;24.80;69.90;;;;;;5096650;28;20455;-72
2022/08/04 06:19:43;;;;;;;8.07;2.73;;;25.00;69.80;;;;;;5097010;28;20439;-72
2022/08/04 06:22:13;;;;;;;8.07;3.47;;;25.10;69.50;;;;;;5097067;28;20451;-72
2022/08/04 06:24:42;;;;;;;7.80;3.60;;;25.20;68.80;;;;;;5096721;28;20479;-73
2022/08/04 06:27:09;;;;;;;6.00;2.70;;;25.40;66.90;;;;;;5097182;28;20846;-72
2022/08/04 06:29:40;;;;;;;3.13;2.40;;;25.40;65.40;;;;;;5096673;28;21021;-72
2022/08/04 06:32:23;;;;;;;10.43;3.73;;;25.60;64.70;;;;;;5096825;28;20475;-73
2022/08/04 06:34:52;;;;;;;5.00;2.50;;;25.70;64.40;;;;;;5096745;28;20517;-72
2022/08/04 06:37:22;;;;;;;5.60;2.60;;;25.90;62.50;;;;;;5096848;28;20451;-73
2022/08/04 06:39:51;;;;;;;4.07;2.73;;;25.90;61.20;;;;;;5096280;28;20905;-72
2022/08/04 06:42:20;;;;;;;6.03;2.47;;;26.00;59.80;;;;;;5096723;28;20452;-73
2022/08/04 06:44:51;;;;;;;4.17;2.77;;;26.10;59.60;;;;;;5096838;28;20487;-74
2022/08/04 06:47:20;;;;;;;5.97;2.50;;;26.30;59.30;;;;;;5096562;28;20531;-73
2022/08/04 06:49:48;;;;;;;5.43;2.77;;;26.30;57.60;;;;;;5096358;28;20967;-73
2022/08/04 06:52:18;;;;;;;4.93;2.13;;;26.40;57.20;;;;;;5096318;28;20440;-73
2022/08/04 06:54:48;;;;;;;6.10;2.50;;;26.50;57.10;;;;;;5096393;28;20472;-73
2022/08/04 06:57:17;;;;;;;6.73;2.37;;;26.70;56.90;;;;;;5097072;28;20447;-73
2022/08/04 06:59:45;;;;;;;5.80;2.47;;;26.80;56.60;;;;;;5096412;28;20452;-73
2022/08/04 07:02:15;;;;;;;5.33;2.40;;;27.00;56.20;;;;;;5096391;28;20440;-73
2022/08/04 07:04:43;;;;;;;4.00;2.47;;;27.20;55.50;;;;;;5096077;28;20488;-73
2022/08/04 07:07:11;;;;;;;8.73;2.73;;;27.40;55.20;;;;;;5096206;28;20513;-73
2022/08/04 07:09:39;;;;;;;3.77;2.30;;;27.50;55.00;;;;;;5096189;28;20452;-73
2022/08/04 07:12:08;;;;;;;9.87;2.77;;;27.70;54.50;;;;;;5095631;28;20456;-73
2022/08/04 07:14:36;;;;;;;6.50;2.60;;;27.90;53.90;;;;;;5095451;28;20467;-73
2022/08/04 07:17:04;;;;;;;5.53;2.63;;;28.10;53.10;;;;;;5095476;28;20820;-73
2022/08/04 07:19:32;;;;;;;5.07;2.20;;;28.20;52.60;;;;;;5095474;28;20968;-73
2022/08/04 07:22:00;;;;;;;5.77;2.60;;;28.30;52.80;;;;;;5095947;28;20448;-73
2022/08/04 07:24:30;;;;;;;7.87;2.60;;;28.60;52.20;;;;;;5095568;28;20502;-73
2022/08/04 07:26:57;;;;;;;6.80;2.40;;;28.80;51.90;;;;;;5094356;28;20455;-73
2022/08/04 07:29:26;;;;;;;4.50;2.40;;;29.00;50.90;;;;;;5095471;28;20448;-73
2022/08/04 07:31:54;;;;;;;4.93;2.37;;;29.10;50.10;;;;;;5095695;28;20452;-73
2022/08/04 07:34:21;;;;;;;5.37;2.50;;;29.40;49.40;;;;;;5095372;28;20470;-73
2022/08/04 07:36:50;;;;;;;9.33;3.30;;;29.50;48.50;;;;;;5095709;28;20455;-73
2022/08/04 07:39:17;;;;;;;8.50;3.10;;;29.70;47.70;;;;;;5095386;28;20443;-74
2022/08/04 07:41:44;;;;;;;5.33;2.60;;;29.90;47.80;;;;;;5095397;28;20455;-74
2022/08/04 07:44:14;;;;;;;10.63;2.40;;;30.20;47.40;;;;;;5094946;28;20490;-74
2022/08/04 07:46:43;;;;;;;6.10;3.07;;;30.40;46.30;;;;;;5095386;28;20432;-74
2022/08/04 07:49:11;;;;;;;7.07;2.13;;;30.70;45.50;;;;;;5095575;28;20420;-73
2022/08/04 07:51:39;;;;;;;15.93;2.90;;;30.90;45.80;;;;;;5095212;28;20454;-74
2022/08/04 07:54:08;;;;;;;9.63;2.77;;;31.20;44.60;;;;;;5095099;28;20460;-74
2022/08/04 07:56:37;;;;;;;6.53;2.63;;;31.30;43.50;;;;;;5095217;28;20474;-74
2022/08/04 07:59:05;;;;;;;7.93;2.43;;;31.60;43.50;;;;;;5095308;28;20463;-74
2022/08/04 08:01:32;;;;;;;6.27;2.43;;;31.80;42.40;;;;;;5094791;28;20935;-73
2022/08/04 08:04:01;;;;;;;4.37;2.57;;;31.90;41.50;;;;;;5094669;28;20479;-73
2022/08/04 08:06:29;;;;;;;7.90;2.70;;;32.20;41.20;;;;;;5094941;28;20447;-74
2022/08/04 08:08:56;;;;;;;4.70;2.23;;;32.50;40.80;;;;;;5095015;28;20451;-74
2022/08/04 08:11:24;;;;;;;6.13;2.77;;;32.70;40.40;;;;;;5094955;28;20448;-73
2022/08/04 08:13:51;;;;;;;6.67;2.80;;;33.00;39.60;;;;;;5094429;28;20995;-73
2022/08/04 08:16:19;;;;;;;9.30;2.67;;;33.40;39.10;;;;;;5094878;28;20443;-73
2022/08/04 08:18:46;;;;;;;7.27;2.90;;;33.70;38.30;;;;;;5095069;28;20538;-73
2022/08/04 08:21:15;;;;;;;8.30;2.97;;;34.00;37.40;;;;;;5095582;28;20478;-74
2022/08/04 08:23:42;;;;;;;6.33;2.70;;;34.40;37.50;;;;;;5096765;28;20482;-74
2022/08/04 08:26:09;;;;;;;6.97;3.03;;;34.70;36.70;;;;;;5094451;28;20793;-74
2022/08/04 08:28:36;;;;;;;7.90;2.73;;;35.00;36.90;;;;;;5094162;28;20948;-73
2022/08/04 08:31:03;;;;;;;5.83;2.53;;;35.20;34.60;;;;;;5094514;28;20448;-74
2022/08/04 08:33:29;;;;;;;4.30;2.90;;;35.40;34.50;;;;;;5094321;28;20464;-74
2022/08/04 08:36:03;;;;;;;4.17;2.70;;;35.60;34.70;;;;;;5094428;28;20874;-74
2022/08/04 08:38:53;;;;;;;7.03;2.80;;;35.90;36.30;;;;;;5094356;28;20423;-74
2022/08/04 08:41:57;;;;;;;5.83;2.40;;;36.20;36.20;;;;;;5093923;28;20946;-74
2022/08/04 08:44:54;;;;;;;6.43;2.30;;;36.50;35.80;;;;;;5094096;28;20497;-74
2022/08/04 08:47:37;;;;;;;9.30;2.97;;;36.70;34.50;;;;;;5050221;28;20435;-74
2022/08/04 08:50:30;;;;;;;4.27;2.60;;;36.80;33.50;;;;;;5094163;28;20194;-74
2022/08/04 08:53:13;;;;;;;7.47;3.30;;;36.60;33.90;;;;;;5051719;28;20479;-74
2022/08/04 08:56:11;;;;;;;8.63;2.60;;;36.40;33.10;;;;;;5094114;28;20420;-74
2022/08/04 08:58:57;;;;;;;7.07;3.00;;;36.10;33.30;;;;;;5094043;28;20442;-75
2022/08/04 09:01:57;;;;;;;17.53;3.50;;;35.80;35.60;;;;;;5094208;28;20435;-74
2022/08/04 09:04:48;;;;;;;21.57;3.30;;;35.40;36.10;;;;;;5093711;28;20490;-74
2022/08/04 09:07:31;;;;;;;11.27;3.20;;;35.20;35.50;;;;;;5081793;28;20459;-74
2022/08/04 09:10:10;;;;;;;10.40;3.50;;;34.90;35.90;;;;;;5093605;28;20903;-74
2022/08/04 09:12:49;;;;;;;8.17;2.50;;;34.70;36.80;;;;;;5093353;28;20471;-75
2022/08/04 09:15:21;;;;;;;5.97;2.47;;;34.70;36.60;;;;;;5093490;28;20434;-74
2022/08/04 09:17:54;;;;;;;10.57;3.10;;;34.70;36.10;;;;;;5093715;28;20538;-74
2022/08/04 09:20:29;;;;;;;6.00;2.47;;;34.90;36.80;;;;;;5093815;28;20438;-74
2022/08/04 09:23:08;;;;;;;7.93;2.87;;;35.00;35.70;;;;;;5093666;28;20459;-74
2022/08/04 09:25:41;;;;;;;5.23;2.23;;;35.30;36.80;;;;;;5093883;28;20463;-74
2022/08/04 09:28:24;;;;;;;8.37;2.90;;;35.50;35.70;;;;;;5093694;28;20435;-74
2022/08/04 09:30:57;;;;;;;9.97;3.00;;;35.70;35.40;;;;;;5093690;28;20484;-74
2022/08/04 09:33:34;;;;;;;11.97;2.80;;;36.00;33.50;;;;;;5093968;28;20472;-74
2022/08/04 09:36:07;;;;;;;9.40;3.07;;;36.20;34.50;;;;;;5093235;28;20435;-74
2022/08/04 09:38:41;;;;;;;9.07;2.37;;;36.50;33.60;;;;;;5093486;28;20436;-74
2022/08/04 09:41:21;;;;;;;5.33;2.57;;;36.50;32.40;;;;;;5093488;28;20800;-74
2022/08/04 09:44:07;;;;;;;3.83;2.27;;;36.50;32.70;;;;;;5093296;28;20835;-74
2022/08/04 09:46:40;;;;;;;4.30;2.50;;;36.60;32.00;;;;;;5093388;28;20436;-74
2022/08/04 09:49:14;;;;;;;6.80;2.70;;;36.80;33.20;;;;;;5094704;28;20431;-74
2022/08/04 09:51:56;;;;;;;2.70;2.20;;;36.80;31.50;;;;;;5097626;28;20447;-71
2022/08/04 09:54:33;;;;;;;6.00;2.30;;;36.40;31.90;;;;;;5097103;28;20463;-72
2022/08/04 09:57:10;;;;;;;5.27;2.20;;;36.40;32.10;;;;;;5097570;28;20458;-72
2022/08/04 09:59:43;;;;;;;4.73;2.37;;;36.30;31.90;;;;;;5097333;28;20459;-71
2022/08/04 10:02:13;;;;;;;3.63;2.53;;;36.20;31.70;;;;;;5097359;28;20442;-72
2022/08/04 10:04:42;;;;;;;5.30;2.73;;;36.00;32.50;;;;;;5097102;28;20487;-72
2022/08/04 10:07:39;;;;;;;2.80;2.60;;;36.10;33.60;;;;;;5096933;28;20447;-72
2022/08/04 10:10:32;;;;;;;7.40;2.57;;;36.20;31.90;;;;;;5097288;28;20431;-72
2022/08/04 10:13:20;;;;;;;7.70;2.30;;;36.10;33.10;;;;;;5093130;28;20487;-73
2022/08/04 10:16:00;;;;;;;3.90;2.20;;;35.90;33.20;;;;;;5097066;28;20419;-72
2022/08/04 10:18:40;;;;;;;6.43;2.00;;;35.60;33.20;;;;;;5097246;28;20435;-72
2022/08/04 10:21:16;;;;;;;5.20;2.20;;;35.30;33.60;;;;;;5097138;28;20463;-72
2022/08/04 10:24:15;;;;;;;6.13;2.90;;;35.10;34.20;;;;;;5096528;28;21059;-72
2022/08/04 10:26:49;;;;;;;8.13;2.80;;;35.10;34.90;;;;;;5037608;28;20466;-72
2022/08/04 10:29:22;;;;;;;6.50;2.97;;;35.30;35.50;;;;;;5096963;28;20431;-72
2022/08/04 10:31:57;;;;;;;9.40;2.70;;;35.40;35.60;;;;;;5096852;28;20461;-72
2022/08/04 10:34:28;;;;;;;8.10;3.03;;;35.90;34.60;;;;;;5096812;28;20455;-72
2022/08/04 10:37:02;;;;;;;8.27;3.00;;;36.10;33.30;;;;;;5097076;28;20431;-72
2022/08/04 10:39:40;;;;;;;10.87;2.80;;;36.40;32.90;;;;;;5096424;28;20522;-72
2022/08/04 10:42:18;;;;;;;3.17;2.33;;;36.50;32.60;;;;;;5096814;28;20427;-72
2022/08/04 10:45:01;;;;;;;7.93;2.47;;;37.00;33.70;;;;;;5096637;28;20483;-72
2022/08/04 10:47:37;;;;;;;8.17;3.00;;;37.60;31.90;;;;;;5096689;28;20190;-72
2022/08/04 10:50:09;;;;;;;7.73;3.10;;;38.10;29.50;;;;;;5096232;28;20637;-72
2022/08/04 10:52:42;;;;;;;5.82;2.50;;;38.40;29.00;;;;;;5096347;28;20186;-73
2022/08/04 10:55:16;;;;;;;4.63;2.40;;;38.90;28.80;;;;;;5096449;28;20208;-73
2022/08/04 10:57:49;;;;;;;11.75;3.05;;;39.20;28.30;;;;;;5096428;28;20200;-73
2022/08/04 11:00:24;;;;;;;4.68;2.40;;;39.10;27.70;;;;;;5095743;28;20194;-73
2022/08/04 11:02:59;;;;;;;5.77;2.60;;;39.00;27.70;;;;;;5095807;28;20188;-73
2022/08/04 11:05:33;;;;;;;6.20;2.40;;;38.80;28.20;;;;;;5096047;28;20708;-73
2022/08/04 11:08:03;;;;;;;4.50;2.90;;;38.30;29.30;;;;;;5095868;28;20189;-73
2022/08/04 11:10:35;;;;;;;5.20;2.67;;;37.80;29.70;;;;;;5096125;28;20715;-73
2022/08/04 11:13:06;;;;;;;7.97;3.00;;;37.00;30.50;;;;;;5095855;28;20225;-73
2022/08/04 11:15:37;;;;;;;8.00;2.90;;;36.40;31.50;;;;;;5095963;28;20439;-73
2022/08/04 11:18:13;;;;;;;12.37;3.60;;;35.90;33.20;;;;;;5096295;28;20434;-73
2022/08/04 11:20:45;;;;;;;4.70;2.60;;;35.50;33.90;;;;;;5095630;28;20931;-73
2022/08/04 11:23:14;;;;;;;3.93;2.70;;;35.10;34.70;;;;;;5095810;28;20459;-72
2022/08/04 11:25:50;;;;;;;5.23;2.70;;;34.90;34.50;;;;;;5095639;28;20485;-73
2022/08/04 11:28:25;;;;;;;7.67;2.77;;;34.40;35.10;;;;;;5095920;28;20496;-73
2022/08/04 11:30:57;;;;;;;5.47;2.47;;;34.00;35.50;;;;;;5095867;28;20432;-73
2022/08/04 11:33:35;;;;;;;7.23;2.53;;;33.60;36.50;;;;;;5095749;28;20467;-73
2022/08/04 11:36:08;;;;;;;2.50;2.30;;;33.20;37.00;;;;;;5095465;28;20432;-73
2022/08/04 11:38:44;;;;;;;4.00;2.10;;;32.90;37.70;;;;;;5096025;28;20434;-73
2022/08/04 11:41:17;;;;;;;3.80;2.33;;;32.80;38.60;;;;;;5095662;28;20440;-73
2022/08/04 11:43:51;;;;;;;4.07;2.30;;;32.60;38.60;;;;;;5095580;28;20471;-73
2022/08/04 11:46:24;;;;;;;4.70;2.33;;;32.60;39.60;;;;;;5095565;28;20466;-73
2022/08/04 11:48:58;;;;;;;6.40;2.17;;;32.60;39.20;;;;;;5095299;28;20442;-73
2022/08/04 11:51:28;;;;;;;7.53;2.40;;;32.80;39.50;;;;;;5095433;28;20511;-73
2022/08/04 11:53:56;;;;;;;3.20;2.63;;;33.00;39.50;;;;;;5095235;28;20467;-73
2022/08/04 11:56:23;;;;;;;5.37;2.63;;;33.20;38.50;;;;;;5095199;28;20813;-73
2022/08/04 11:58:50;;;;;;;6.03;2.90;;;33.70;38.20;;;;;;5095284;28;20443;-72
2022/08/04 12:01:25;;;;;;;9.90;2.47;;;34.00;37.20;;;;;;5095340;28;20450;-73
2022/08/04 12:04:03;;;;;;;5.47;2.60;;;34.20;37.40;;;;;;5094839;28;20849;-72
2022/08/04 12:06:39;;;;;;;2.80;2.40;;;34.40;36.40;;;;;;5095135;28;20498;-72
2022/08/04 12:09:13;;;;;;;7.10;2.43;;;34.40;36.80;;;;;;5095073;28;20435;-73
2022/08/04 12:11:52;;;;;;;8.77;3.07;;;34.40;37.20;;;;;;5094390;28;20446;-73
2022/08/04 12:14:29;;;;;;;3.90;2.40;;;34.40;37.70;;;;;;5094996;28;20462;-73
2022/08/04 12:17:00;;;;;;;7.17;3.30;;;34.50;38.30;;;;;;5095641;28;20419;-73
2022/08/04 12:19:37;;;;;;;3.50;2.70;;;34.80;38.80;;;;;;5094790;28;20438;-73
2022/08/04 12:22:09;;;;;;;5.90;2.70;;;35.10;36.60;;;;;;5095377;28;20803;-71
2022/08/04 12:24:43;;;;;;;9.33;3.17;;;35.40;35.90;;;;;;5095726;28;20471;-72
2022/08/04 12:27:15;;;;;;;4.50;3.10;;;35.70;35.60;;;;;;5095597;28;20463;-72
2022/08/04 12:29:44;;;;;;;3.60;2.90;;;36.00;36.80;;;;;;5095047;28;20428;-71
2022/08/04 12:32:18;;;;;;;6.50;3.63;;;36.20;35.80;;;;;;5095124;28;20912;-72
2022/08/04 12:34:54;;;;;;;7.17;3.10;;;36.30;35.40;;;;;;5094904;28;20495;-72
2022/08/04 12:37:29;;;;;;;4.23;2.60;;;36.40;35.80;;;;;;5095228;28;20446;-72
2022/08/04 12:40:01;;;;;;;6.90;3.23;;;36.50;36.10;;;;;;5094812;28;20431;-72
2022/08/04 12:42:36;;;;;;;7.10;2.77;;;36.60;35.50;;;;;;5095223;28;20528;-71
2022/08/04 12:45:05;;;;;;;3.83;2.70;;;36.70;34.50;;;;;;5095103;28;20473;-72
2022/08/04 12:47:36;;;;;;;4.27;2.50;;;36.70;34.40;;;;;;5095292;28;20439;-72
2022/08/04 12:50:07;;;;;;;5.40;2.80;;;36.80;34.10;;;;;;5095407;28;20449;-72
2022/08/04 12:52:42;;;;;;;9.77;2.33;;;36.90;34.20;;;;;;5095317;28;20190;-73
2022/08/04 12:55:10;;;;;;;6.27;2.73;;;37.00;33.70;;;;;;5095061;28;20431;-71
2022/08/04 12:57:38;;;;;;;5.60;2.80;;;36.90;32.70;;;;;;5095108;28;20439;-71
2022/08/04 13:00:06;;;;;;;5.90;2.40;;;36.80;32.60;;;;;;5094039;28;20974;-71
2022/08/04 13:02:40;;;;;;;4.00;2.60;;;36.60;33.10;;;;;;5094455;28;20940;-72
2022/08/04 13:05:11;;;;;;;3.00;2.27;;;36.70;33.90;;;;;;5094526;28;20818;-72
2022/08/04 13:07:42;;;;;;;4.40;2.70;;;36.70;33.70;;;;;;5094503;28;20519;-72
2022/08/04 13:10:12;;;;;;;3.00;2.40;;;36.70;32.70;;;;;;5094461;28;20439;-72
2022/08/04 13:12:42;;;;;;;4.90;2.20;;;36.60;32.80;;;;;;5094319;28;20451;-73
2022/08/04 13:15:12;;;;;;;4.43;2.40;;;36.60;33.30;;;;;;5094582;28;20483;-72
2022/08/04 13:17:49;;;;;;;6.17;2.37;;;36.50;32.80;;;;;;5094776;28;20447;-72
2022/08/04 13:20:23;;;;;;;11.40;2.73;;;36.30;33.10;;;;;;5094538;28;20428;-72
2022/08/04 13:22:50;;;;;;;5.30;3.17;;;36.20;33.80;;;;;;5094258;28;20423;-72
2022/08/04 13:25:18;;;;;;;7.57;2.77;;;36.20;34.00;;;;;;5094170;28;20486;-71
2022/08/04 13:27:47;;;;;;;5.97;2.80;;;36.20;34.70;;;;;;5094568;28;20453;-72
2022/08/04 13:30:18;;;;;;;5.10;2.50;;;36.10;35.20;;;;;;5094669;28;20437;-72
2022/08/04 13:32:45;;;;;;;5.83;2.63;;;35.90;34.80;;;;;;5094382;28;20873;-71